Time;durP1;ratioP1;P1;durP2;ratioP2;P2;SDS_P1;SDS_P2;PMS_P1;PMS_P2;Temp;Humidity;BMP_temperature;BMP_pressure;BME280_temperature;BME280_humidity;BME280_pressure;Samples;Min_cycle;Max_cycle;Signal;HPM_P1;HPM_P2
2023/09/18 00:00:12;;;;;;;0.50;0.20;;;;;;;19.78;100.00;99458.75;5044219;28;20450;-50
2023/09/18 00:02:39;;;;;;;0.50;0.20;;;;;;;19.79;100.00;99444.28;5033491;28;20428;-50
2023/09/18 00:05:06;;;;;;;0.50;0.20;;;;;;;19.93;100.00;99444.03;5038279;28;20504;-50
2023/09/18 00:07:32;;;;;;;0.50;0.20;;;;;;;20.02;100.00;99445.13;5047759;28;20454;-50
2023/09/18 00:09:59;;;;;;;0.50;0.20;;;;;;;20.10;100.00;99435.41;5048218;28;20451;-52
2023/09/18 00:12:25;;;;;;;0.50;0.20;;;;;;;20.32;100.00;99434.53;5042645;28;20869;-50
2023/09/18 00:14:52;;;;;;;0.50;0.20;;;;;;;20.27;100.00;99434.03;5041867;28;20542;-50
2023/09/18 00:17:19;;;;;;;0.50;0.30;;;;;;;20.26;100.00;99435.00;5044826;28;20648;-50
2023/09/18 00:19:46;;;;;;;0.50;0.20;;;;;;;20.32;100.00;99428.28;5031875;28;20430;-51
2023/09/18 00:22:12;;;;;;;0.50;0.20;;;;;;;20.28;100.00;99433.03;5047408;28;20542;-51
2023/09/18 00:24:39;;;;;;;0.50;0.30;;;;;;;20.38;99.59;99425.91;5047631;28;20445;-50
2023/09/18 00:27:05;;;;;;;0.50;0.20;;;;;;;20.14;100.00;99427.91;5042947;28;20451;-50
2023/09/18 00:29:32;;;;;;;0.50;0.30;;;;;;;20.13;100.00;99420.81;5041475;28;20422;-50
2023/09/18 00:31:58;;;;;;;0.73;0.67;;;;;;;20.21;100.00;99410.25;5046452;28;20451;-50
2023/09/18 00:34:25;;;;;;;0.50;0.20;;;;;;;20.17;100.00;99414.19;5047184;28;21015;-50
2023/09/18 00:36:51;;;;;;;9.43;7.10;;;;;;;20.02;100.00;99404.66;5017772;28;20427;-50
2023/09/18 00:39:18;;;;;;;0.50;0.20;;;;;;;20.08;100.00;99405.00;5042983;28;20436;-50
2023/09/18 00:41:49;;;;;;;0.60;0.60;;;;;;;20.12;100.00;99401.06;5042460;28;20842;-50
2023/09/18 00:44:15;;;;;;;0.43;0.20;;;;;;;19.94;100.00;99393.63;5041102;28;20450;-50
2023/09/18 00:46:43;;;;;;;0.50;0.20;;;;;;;20.16;99.93;99393.59;5045239;28;20549;-50
2023/09/18 00:49:10;;;;;;;0.50;0.30;;;;;;;20.07;100.00;99383.56;5047138;28;20457;-50
2023/09/18 00:51:36;;;;;;;0.50;0.20;;;;;;;20.10;100.00;99389.53;5043508;28;20891;-50
2023/09/18 00:54:03;;;;;;;0.50;0.20;;;;;;;20.12;100.00;99398.38;5037792;28;20506;-50
2023/09/18 00:56:30;;;;;;;0.50;0.20;;;;;;;20.03;100.00;99391.06;5038238;28;20450;-50
2023/09/18 00:58:56;;;;;;;0.40;0.20;;;;;;;19.87;100.00;99404.06;5037714;28;20936;-50
2023/09/18 01:01:23;;;;;;;0.40;0.20;;;;;;;19.80;100.00;99395.63;5039758;28;20435;-50
2023/09/18 01:03:51;;;;;;;0.50;0.20;;;;;;;19.83;100.00;99383.72;5043467;28;20982;-50
2023/09/18 01:06:19;;;;;;;0.50;0.20;;;;;;;19.68;100.00;99393.91;5043051;28;20583;-50
2023/09/18 01:08:46;;;;;;;0.50;0.20;;;;;;;19.97;100.00;99394.22;5047346;28;20483;-50
2023/09/18 01:11:30;;;;;;;0.50;0.20;;;;;;;19.98;100.00;99397.78;5045253;28;20446;-50
2023/09/18 01:14:07;;;;;;;0.50;0.20;;;;;;;20.08;100.00;99399.63;5047038;28;21003;-50
2023/09/18 01:16:50;;;;;;;0.50;0.20;;;;;;;20.06;100.00;99396.19;5047110;28;20417;-51
2023/09/18 01:19:34;;;;;;;0.50;0.20;;;;;;;20.15;100.00;99401.78;5022614;28;20452;-50
2023/09/18 01:22:01;;;;;;;0.40;0.20;;;;;;;20.21;100.00;99388.66;5026930;28;20455;-50
2023/09/18 01:24:27;;;;;;;0.50;0.30;;;;;;;20.23;100.00;99396.63;5035796;28;20951;-50
2023/09/18 01:26:57;;;;;;;0.40;0.20;;;;;;;20.37;100.00;99391.78;5027962;28;20464;-51
2023/09/18 01:29:23;;;;;;;0.50;0.20;;;;;;;20.29;100.00;99388.91;5040334;28;20455;-50
2023/09/18 01:31:51;;;;;;;0.50;0.20;;;;;;;20.26;100.00;99390.97;5045889;28;20427;-50
2023/09/18 01:34:33;;;;;;;0.40;0.20;;;;;;;20.16;100.00;99400.84;5037233;28;20824;-50
2023/09/18 01:37:00;;;;;;;0.50;0.20;;;;;;;20.19;100.00;99405.97;5043717;28;20418;-50
2023/09/18 01:39:30;;;;;;;0.50;0.20;;;;;;;20.12;100.00;99513.53;5044445;28;20422;-50
2023/09/18 01:42:05;;;;;;;0.50;0.20;;;;;;;20.04;100.00;99445.88;5043966;28;20449;-50
2023/09/18 01:44:33;;;;;;;0.40;0.20;;;;;;;20.41;100.00;99494.97;5039888;28;20449;-51
2023/09/18 01:47:02;;;;;;;0.40;0.20;;;;;;;20.80;100.00;99463.00;5050059;28;20907;-50
2023/09/18 01:49:31;;;;;;;0.50;0.20;;;;;;;20.94;100.00;99490.56;5039746;28;20451;-50
2023/09/18 01:51:58;;;;;;;5.87;3.43;;;;;;;20.89;100.00;99473.03;5035409;28;20427;-50
2023/09/18 01:54:25;;;;;;;0.47;0.20;;;;;;;21.08;100.00;99475.03;5030409;28;20474;-50
2023/09/18 01:56:53;;;;;;;0.50;0.20;;;;;;;20.95;100.00;99472.50;5037087;28;20527;-50
2023/09/18 01:59:20;;;;;;;0.47;0.20;;;;;;;20.86;100.00;99460.66;5039392;28;20791;-50
2023/09/18 02:01:47;;;;;;;0.43;0.20;;;;;;;21.03;100.00;99451.09;5032057;28;20490;-50
2023/09/18 02:04:14;;;;;;;0.50;0.20;;;;;;;20.88;100.00;99447.84;5039837;28;20937;-50
2023/09/18 02:07:01;;;;;;;0.47;0.20;;;;;;;20.74;100.00;99429.25;5036541;28;20493;-51
2023/09/18 02:09:27;;;;;;;0.40;0.20;;;;;;;20.67;100.00;99426.19;5042857;28;20927;-50
2023/09/18 02:11:54;;;;;;;0.40;0.20;;;;;;;20.77;100.00;99409.22;5039325;28;20427;-51
2023/09/18 02:14:20;;;;;;;0.50;0.20;;;;;;;20.83;100.00;99397.88;5048313;28;20536;-50
2023/09/18 02:16:46;;;;;;;0.40;0.20;;;;;;;20.73;100.00;99400.53;5047408;28;20457;-51
2023/09/18 02:19:13;;;;;;;0.50;0.20;;;;;;;20.52;100.00;99399.63;5042743;28;20963;-50
2023/09/18 02:21:41;;;;;;;0.50;0.20;;;;;;;20.55;100.00;99389.41;5038337;28;20894;-50
2023/09/18 02:24:07;;;;;;;0.40;0.20;;;;;;;20.57;100.00;99402.81;5037615;28;20538;-50
2023/09/18 02:26:34;;;;;;;0.40;0.20;;;;;;;20.60;100.00;99403.41;5045248;28;20519;-50
2023/09/18 02:29:03;;;;;;;0.40;0.20;;;;;;;20.66;100.00;99394.78;5043388;28;20458;-50
2023/09/18 02:31:30;;;;;;;0.50;0.20;;;;;;;20.75;100.00;99403.97;5038774;28;20425;-51
2023/09/18 02:33:56;;;;;;;0.50;0.20;;;;;;;20.56;100.00;99403.78;5041443;28;20454;-50
2023/09/18 02:36:23;;;;;;;0.50;0.20;;;;;;;20.64;100.00;99395.91;5031066;28;20512;-50
2023/09/18 02:38:49;;;;;;;0.50;0.20;;;;;;;20.36;100.00;99400.03;5041071;28;20428;-50
2023/09/18 02:41:16;;;;;;;0.50;0.20;;;;;;;20.55;100.00;99378.63;5041765;28;20425;-50
2023/09/18 02:43:43;;;;;;;0.40;0.20;;;;;;;20.21;100.00;99368.91;5040404;28;20799;-50
2023/09/18 02:46:09;;;;;;;0.40;0.20;;;;;;;20.35;100.00;99401.88;5045136;28;20562;-50
2023/09/18 02:48:36;;;;;;;0.50;0.50;;;;;;;20.28;100.00;99389.00;5039124;28;20456;-50
2023/09/18 02:51:03;;;;;;;0.50;0.20;;;;;;;20.27;100.00;99404.34;5045852;28;20630;-50
2023/09/18 02:53:29;;;;;;;0.40;0.20;;;;;;;20.46;100.00;99392.06;5030039;28;20427;-52
2023/09/18 02:55:57;;;;;;;0.60;0.60;;;;;;;20.55;100.00;99380.47;5036304;28;20983;-50
2023/09/18 02:58:29;;;;;;;0.50;0.20;;;;;;;20.49;100.00;99381.00;5031734;28;20562;-50
2023/09/18 03:01:00;;;;;;;0.50;0.20;;;;;;;20.45;100.00;99358.81;5025654;28;21003;-50
2023/09/18 03:03:26;;;;;;;0.40;0.20;;;;;;;20.53;100.00;99344.63;5045376;28;20903;-50
2023/09/18 03:05:59;;;;;;;0.40;0.20;;;;;;;20.50;100.00;99356.56;5039590;28;20494;-50
2023/09/18 03:08:26;;;;;;;0.50;0.20;;;;;;;20.64;100.00;99353.53;5038672;28;20970;-50
2023/09/18 03:10:52;;;;;;;0.40;0.20;;;;;;;20.61;100.00;99361.91;5043527;28;20843;-50
2023/09/18 03:13:19;;;;;;;0.40;0.20;;;;;;;20.79;100.00;99355.94;5044564;28;20458;-50
2023/09/18 03:15:47;;;;;;;0.50;0.20;;;;;;;20.69;100.00;99363.94;5040118;28;20817;-50
2023/09/18 03:18:14;;;;;;;0.50;0.20;;;;;;;20.61;100.00;99371.88;5038239;28;20923;-50
2023/09/18 03:20:40;;;;;;;0.40;0.20;;;;;;;20.71;100.00;99386.31;5043098;28;20795;-50
2023/09/18 03:23:07;;;;;;;0.50;0.20;;;;;;;20.56;100.00;99388.47;5041107;28;20453;-50
2023/09/18 03:25:35;;;;;;;0.40;0.20;;;;;;;20.58;100.00;99391.88;5040857;28;20866;-49
2023/09/18 03:28:17;;;;;;;0.40;0.20;;;;;;;20.60;100.00;99380.94;5038709;28;20567;-50
2023/09/18 03:30:44;;;;;;;0.50;0.20;;;;;;;20.22;100.00;99379.59;5050119;28;20459;-50
2023/09/18 03:33:10;;;;;;;0.40;0.30;;;;;;;20.16;100.00;99380.09;5038457;28;20516;-50
2023/09/18 03:35:51;;;;;;;0.40;0.20;;;;;;;20.15;100.00;99373.00;5039606;28;20468;-50
2023/09/18 03:38:17;;;;;;;0.50;0.20;;;;;;;20.03;100.00;99371.31;5040600;28;20970;-50
2023/09/18 03:40:44;;;;;;;0.50;0.20;;;;;;;20.23;100.00;99384.00;5042162;28;20455;-50
2023/09/18 03:43:11;;;;;;;0.47;0.20;;;;;;;20.24;100.00;99387.53;5047536;28;20992;-50
2023/09/18 03:45:40;;;;;;;0.40;0.20;;;;;;;20.16;100.00;99390.03;5048704;28;20449;-50
2023/09/18 03:48:08;;;;;;;0.50;0.20;;;;;;;20.33;100.00;99381.41;5043923;28;20451;-50
2023/09/18 03:50:35;;;;;;;0.50;0.20;;;;;;;20.40;100.00;99377.19;5030805;28;20460;-51
2023/09/18 03:53:02;;;;;;;0.40;0.20;;;;;;;20.18;100.00;99366.47;5046933;28;20865;-50
2023/09/18 03:55:29;;;;;;;0.50;0.20;;;;;;;20.03;100.00;99374.00;5037157;28;20949;-50
2023/09/18 03:57:56;;;;;;;0.40;0.20;;;;;;;20.07;100.00;99370.06;5036916;28;20430;-48
2023/09/18 04:00:23;;;;;;;2.53;2.43;;;;;;;20.00;100.00;99367.00;5048567;28;20788;-49
2023/09/18 04:02:49;;;;;;;0.50;0.30;;;;;;;20.18;100.00;99367.34;5028389;28;20460;-49
2023/09/18 04:05:16;;;;;;;0.40;0.20;;;;;;;20.13;100.00;99367.69;5048192;28;20538;-49
2023/09/18 04:07:46;;;;;;;0.50;0.20;;;;;;;20.24;100.00;99360.56;5044576;28;20902;-49
2023/09/18 04:10:22;;;;;;;0.47;0.20;;;;;;;20.26;100.00;99356.75;5041789;28;20450;-49
2023/09/18 04:12:50;;;;;;;0.50;0.20;;;;;;;20.27;100.00;99330.59;5045914;28;20970;-49
2023/09/18 04:15:18;;;;;;;0.40;0.30;;;;;;;20.22;100.00;99335.53;5040587;28;20965;-50
2023/09/18 04:17:45;;;;;;;0.40;0.20;;;;;;;20.29;100.00;99331.34;5042975;28;20916;-49
2023/09/18 04:20:12;;;;;;;0.50;0.20;;;;;;;20.19;100.00;99331.28;5048188;28;20448;-49
2023/09/18 04:22:44;;;;;;;0.50;0.20;;;;;;;20.11;100.00;99323.78;5046015;28;20461;-51
2023/09/18 04:25:12;;;;;;;0.50;0.20;;;;;;;20.18;100.00;99321.47;5041201;28;20507;-49
2023/09/18 04:27:38;;;;;;;0.40;0.20;;;;;;;20.30;100.00;99322.28;5041487;28;20523;-49
2023/09/18 04:30:06;;;;;;;0.40;0.20;;;;;;;20.33;100.00;99312.06;5029331;28;20521;-49
2023/09/18 04:32:32;;;;;;;0.40;0.20;;;;;;;20.30;100.00;99297.97;5041714;28;20423;-49
2023/09/18 04:34:59;;;;;;;0.40;0.20;;;;;;;20.30;100.00;99295.28;5018411;28;20883;-51
2023/09/18 04:37:25;;;;;;;0.40;0.20;;;;;;;20.32;100.00;99294.16;5028570;28;20521;-49
2023/09/18 04:39:52;;;;;;;0.40;0.20;;;;;;;20.45;100.00;99288.59;5047622;28;20427;-49
2023/09/18 04:42:18;;;;;;;0.40;0.20;;;;;;;20.47;100.00;99305.53;5047820;28;20954;-49
2023/09/18 04:44:45;;;;;;;0.40;0.20;;;;;;;20.40;100.00;99307.84;5041214;28;20557;-51
2023/09/18 04:47:12;;;;;;;0.40;0.20;;;;;;;20.37;100.00;99300.00;5040641;28;20993;-49
2023/09/18 04:49:38;;;;;;;0.40;0.20;;;;;;;20.35;100.00;99314.63;5040685;28;20451;-51
2023/09/18 04:52:05;;;;;;;0.40;0.20;;;;;;;20.44;100.00;99334.63;5040149;28;20452;-49
2023/09/18 04:54:31;;;;;;;0.40;0.20;;;;;;;20.26;100.00;99337.00;5029405;28;20442;-49
2023/09/18 04:56:58;;;;;;;0.47;0.20;;;;;;;20.52;100.00;99338.38;5033600;28;20456;-49
2023/09/18 04:59:24;;;;;;;0.40;0.20;;;;;;;20.38;100.00;99342.22;5033314;28;20426;-49
2023/09/18 05:01:51;;;;;;;0.50;0.20;;;;;;;20.33;100.00;99368.75;5026590;28;20928;-49
2023/09/18 05:04:18;;;;;;;0.50;0.20;;;;;;;20.30;100.00;99377.13;5030748;28;20524;-49
2023/09/18 05:06:44;;;;;;;0.40;0.20;;;;;;;20.22;100.00;99400.31;5030035;28;21032;-49
2023/09/18 05:09:11;;;;;;;0.50;0.27;;;;;;;20.26;100.00;99386.44;5034790;28;20414;-49
2023/09/18 05:11:38;;;;;;;0.40;0.20;;;;;;;20.27;100.00;99390.00;5040451;28;20544;-50
2023/09/18 05:14:06;;;;;;;0.50;0.20;;;;;;;20.32;100.00;99407.53;5045450;28;20430;-49
2023/09/18 05:16:32;;;;;;;0.47;0.20;;;;;;;20.48;100.00;99404.44;5047501;28;20422;-49
2023/09/18 05:19:02;;;;;;;0.40;0.20;;;;;;;20.55;100.00;99407.47;5042656;28;20825;-49
2023/09/18 05:21:29;;;;;;;0.40;0.30;;;;;;;20.27;100.00;99393.53;5040041;28;20453;-49
2023/09/18 05:23:56;;;;;;;0.40;0.20;;;;;;;20.26;100.00;99397.22;5039307;28;20982;-49
2023/09/18 05:26:24;;;;;;;0.40;0.20;;;;;;;20.30;100.00;99387.91;5035497;28;20465;-49
2023/09/18 05:28:51;;;;;;;0.40;0.20;;;;;;;19.97;100.00;99358.31;5047178;28;21027;-50
2023/09/18 05:31:18;;;;;;;0.50;0.20;;;;;;;20.20;100.00;99384.25;5039448;28;20518;-49
2023/09/18 05:33:44;;;;;;;0.40;0.20;;;;;;;20.19;100.00;99389.78;5043229;28;20419;-50
2023/09/18 05:36:13;;;;;;;0.40;0.20;;;;;;;20.25;100.00;99390.13;5038766;28;20843;-50
2023/09/18 05:38:40;;;;;;;0.40;0.30;;;;;;;20.29;100.00;99366.44;5049315;28;20978;-50
2023/09/18 05:41:06;;;;;;;0.40;0.20;;;;;;;20.05;100.00;99369.34;5039944;28;20475;-50
2023/09/18 05:43:33;;;;;;;0.40;0.20;;;;;;;20.32;100.00;99385.94;5042406;28;20448;-50
2023/09/18 05:45:59;;;;;;;0.40;0.20;;;;;;;20.52;100.00;99388.84;5046603;28;20474;-50
2023/09/18 05:48:26;;;;;;;0.50;0.30;;;;;;;20.76;100.00;99372.41;5043415;28;20465;-50
2023/09/18 05:50:54;;;;;;;0.40;0.20;;;;;;;20.66;100.00;99375.88;5039745;28;20425;-53
2023/09/18 05:53:20;;;;;;;0.40;0.20;;;;;;;20.86;100.00;99379.59;5042140;28;20513;-50
2023/09/18 05:55:47;;;;;;;0.40;0.20;;;;;;;20.63;100.00;99372.59;5036854;28;20562;-50
2023/09/18 05:58:14;;;;;;;0.40;0.20;;;;;;;20.54;100.00;99359.84;5032378;28;20431;-50
2023/09/18 06:00:40;;;;;;;0.50;0.20;;;;;;;20.48;100.00;99366.63;5045437;28;20459;-49
2023/09/18 06:03:07;;;;;;;0.40;0.20;;;;;;;20.62;100.00;99374.44;5026515;28;20466;-50
2023/09/18 06:05:34;;;;;;;0.40;0.20;;;;;;;20.67;100.00;99383.00;5046181;28;20515;-49
2023/09/18 06:08:01;;;;;;;0.43;0.30;;;;;;;20.77;100.00;99387.63;5044288;28;20577;-49
2023/09/18 06:10:27;;;;;;;0.40;0.20;;;;;;;20.87;100.00;99391.25;5039042;28;20422;-51
2023/09/18 06:12:54;;;;;;;0.40;0.20;;;;;;;21.00;100.00;99391.91;5041637;28;20528;-49
2023/09/18 06:15:21;;;;;;;0.40;0.20;;;;;;;20.99;100.00;99391.06;5046004;28;20542;-49
2023/09/18 06:17:47;;;;;;;0.40;0.30;;;;;;;21.05;100.00;99383.41;5044117;28;20443;-51
2023/09/18 06:20:15;;;;;;;0.40;0.20;;;;;;;20.96;100.00;99385.91;5039195;28;20479;-49
2023/09/18 06:22:42;;;;;;;1.10;1.03;;;;;;;21.03;100.00;99396.19;5040919;28;20506;-49
2023/09/18 06:25:09;;;;;;;0.40;0.20;;;;;;;21.08;100.00;99408.31;5037443;28;20442;-49
2023/09/18 06:27:37;;;;;;;0.40;0.20;;;;;;;21.10;100.00;99411.72;5041078;28;20583;-51
2023/09/18 06:30:05;;;;;;;0.40;0.27;;;;;;;21.04;100.00;99408.72;5045801;28;20422;-50
2023/09/18 06:32:31;;;;;;;0.40;0.30;;;;;;;21.01;100.00;99409.84;5044564;28;20451;-49
2023/09/18 06:34:58;;;;;;;0.40;0.20;;;;;;;21.10;100.00;99419.84;5039042;28;20452;-49
2023/09/18 06:37:25;;;;;;;0.40;0.20;;;;;;;21.13;100.00;99441.22;5040049;28;20418;-50
2023/09/18 06:39:52;;;;;;;0.40;0.20;;;;;;;21.31;99.89;99430.69;5045995;28;20459;-49
2023/09/18 06:42:18;;;;;;;0.40;0.20;;;;;;;21.35;99.58;99434.84;5045199;28;20426;-49
2023/09/18 06:44:45;;;;;;;0.40;0.20;;;;;;;21.51;99.36;99450.56;5038799;28;20471;-49
2023/09/18 06:47:11;;;;;;;0.40;0.20;;;;;;;21.40;99.13;99447.97;5039529;28;20491;-49
2023/09/18 06:49:38;;;;;;;0.40;0.20;;;;;;;21.44;98.56;99458.38;5045677;28;20488;-49
2023/09/18 06:52:06;;;;;;;0.40;0.20;;;;;;;21.64;97.97;99458.47;5044910;28;20431;-49
2023/09/18 06:54:32;;;;;;;0.40;0.20;;;;;;;21.56;97.92;99443.78;5032603;28;20504;-51
2023/09/18 06:56:59;;;;;;;0.40;0.20;;;;;;;21.58;98.06;99446.34;5036184;28;20479;-49
2023/09/18 06:59:25;;;;;;;0.40;0.20;;;;;;;21.74;96.96;99448.56;5040668;28;20421;-49
2023/09/18 07:01:54;;;;;;;0.40;0.20;;;;;;;21.70;97.22;99441.72;5030442;28;20458;-50
2023/09/18 07:04:21;;;;;;;0.40;0.20;;;;;;;21.92;96.33;99448.78;5040274;28;20470;-49
2023/09/18 07:06:48;;;;;;;3.50;3.20;;;;;;;21.81;96.65;99433.53;5038697;28;20465;-49
2023/09/18 07:09:14;;;;;;;0.40;0.20;;;;;;;22.04;95.48;99442.28;5043832;28;20534;-49
2023/09/18 07:11:41;;;;;;;0.40;0.20;;;;;;;22.15;95.68;99442.19;5045798;28;20522;-49
2023/09/18 07:14:08;;;;;;;0.40;0.20;;;;;;;21.85;96.16;99445.78;5044676;28;20957;-50
2023/09/18 07:16:34;;;;;;;0.40;0.20;;;;;;;21.97;95.71;99462.78;5042535;28;20530;-50
2023/09/18 07:19:04;;;;;;;0.40;0.20;;;;;;;21.88;96.27;99464.44;5047228;28;20430;-50
2023/09/18 07:21:30;;;;;;;0.40;0.20;;;;;;;21.88;96.37;99461.72;5049535;28;20529;-50
2023/09/18 07:23:57;;;;;;;0.40;0.20;;;;;;;22.15;95.50;99453.88;5045263;28;20461;-49
2023/09/18 07:26:23;;;;;;;0.40;0.20;;;;;;;22.14;94.94;99459.44;5042402;28;20877;-50
2023/09/18 07:28:50;;;;;;;0.40;0.20;;;;;;;22.27;94.53;99456.50;5045539;28;20455;-50
2023/09/18 07:31:17;;;;;;;0.40;0.20;;;;;;;22.15;94.12;99459.28;5049039;28;20830;-49
2023/09/18 07:33:43;;;;;;;0.40;0.20;;;;;;;22.12;94.44;99461.44;5045078;28;20820;-49
2023/09/18 07:36:10;;;;;;;0.50;0.20;;;;;;;22.28;93.81;99450.06;5042322;28;20458;-49
2023/09/18 07:38:37;;;;;;;0.50;0.20;;;;;;;22.25;93.29;99455.78;5045984;28;20476;-49
2023/09/18 07:41:04;;;;;;;0.43;0.20;;;;;;;22.22;93.64;99466.88;5048978;28;20451;-49
2023/09/18 07:43:30;;;;;;;1.23;1.23;;;;;;;22.27;93.02;99470.03;5045571;28;20538;-50
2023/09/18 07:45:58;;;;;;;0.40;0.20;;;;;;;22.40;93.47;99476.03;5041802;28;20445;-49
2023/09/18 07:48:24;;;;;;;0.50;0.30;;;;;;;22.36;93.13;99478.19;5045499;28;20494;-49
2023/09/18 07:50:51;;;;;;;0.50;0.20;;;;;;;22.31;93.08;99480.44;5048980;28;20451;-49
2023/09/18 07:53:18;;;;;;;0.40;0.20;;;;;;;22.47;92.74;99483.47;5034380;28;20449;-49
2023/09/18 07:55:45;;;;;;;0.40;0.30;;;;;;;22.47;92.34;99488.03;5045995;28;20471;-50
2023/09/18 07:58:12;;;;;;;0.50;0.20;;;;;;;22.51;91.88;99492.19;5026393;28;20426;-49
2023/09/18 08:00:39;;;;;;;0.50;0.20;;;;;;;22.48;92.23;99500.59;5048650;28;20500;-50
2023/09/18 08:03:05;;;;;;;0.50;0.20;;;;;;;22.56;91.60;99502.59;5028397;28;20451;-49
2023/09/18 08:05:32;;;;;;;0.43;0.20;;;;;;;22.43;92.04;99508.25;5048510;28;20475;-49
2023/09/18 08:08:05;;;;;;;0.50;0.30;;;;;;;22.45;91.85;99511.69;5046768;28;20492;-49
2023/09/18 08:10:31;;;;;;;0.40;0.20;;;;;;;22.52;92.33;99506.59;5041715;28;20940;-49
2023/09/18 08:12:58;;;;;;;0.40;0.20;;;;;;;22.41;92.34;99504.84;5042666;28;20482;-49
2023/09/18 08:15:25;;;;;;;0.40;0.20;;;;;;;22.41;91.53;99505.69;5043465;28;20956;-49
2023/09/18 08:17:53;;;;;;;0.50;0.20;;;;;;;22.50;91.59;99506.72;5040681;28;20438;-50
2023/09/18 08:20:20;;;;;;;0.50;0.30;;;;;;;22.80;90.48;99516.63;5041650;28;20524;-49
2023/09/18 08:22:48;;;;;;;0.47;0.20;;;;;;;22.64;90.25;99514.47;5041811;28;20867;-49
2023/09/18 08:25:14;;;;;;;0.50;0.20;;;;;;;22.48;90.24;99514.16;5027527;28;20456;-49
2023/09/18 08:27:43;;;;;;;0.40;0.20;;;;;;;22.74;89.72;99518.03;5041602;28;20521;-49
2023/09/18 08:30:12;;;;;;;0.50;0.20;;;;;;;22.66;88.45;99508.91;5042032;28;20483;-49
2023/09/18 08:32:39;;;;;;;0.40;0.20;;;;;;;22.63;89.10;99498.34;5040344;28;20535;-49
2023/09/18 08:35:08;;;;;;;0.40;0.20;;;;;;;22.64;89.50;99495.50;5047407;28;20468;-50
2023/09/18 08:37:35;;;;;;;0.50;0.20;;;;;;;22.75;88.66;99494.47;5048203;28;20443;-49
2023/09/18 08:40:09;;;;;;;0.50;0.20;;;;;;;22.89;88.42;99501.38;5042356;28;20447;-50
2023/09/18 08:42:40;;;;;;;0.40;0.20;;;;;;;22.71;87.95;99517.44;5040787;28;20422;-50
2023/09/18 08:45:10;;;;;;;0.50;0.23;;;;;;;22.69;88.33;99525.72;5044954;28;20514;-50
2023/09/18 08:47:40;;;;;;;0.40;0.20;;;;;;;22.69;87.91;99519.44;5047809;28;20462;-50
2023/09/18 08:50:10;;;;;;;0.43;0.20;;;;;;;22.68;87.97;99520.44;5045153;28;20451;-50
2023/09/18 08:52:37;;;;;;;0.50;0.20;;;;;;;22.73;87.38;99524.44;5040163;28;20487;-52
2023/09/18 08:57:42;;;;;;;0.40;0.20;;;;;;;22.60;87.99;99531.97;5012834;28;20457;-54
2023/09/18 09:00:11;;;;;;;0.50;0.20;;;;;;;22.64;87.72;99528.00;5014164;28;20480;-54
2023/09/18 09:02:38;;;;;;;0.50;0.20;;;;;;;22.68;87.99;99524.00;5014258;28;20484;-54
2023/09/18 09:05:05;;;;;;;0.50;0.20;;;;;;;22.61;87.92;99517.41;5014174;28;20474;-54
2023/09/18 09:07:32;;;;;;;0.50;0.30;;;;;;;22.61;86.75;99521.97;5014449;28;20550;-54
2023/09/18 09:09:58;;;;;;;0.50;0.20;;;;;;;22.93;86.35;99525.38;5001087;28;20428;-53
2023/09/18 09:12:48;;;;;;;0.40;0.20;;;;;;;22.65;87.09;99521.59;5006805;28;20424;-54
2023/09/18 09:15:15;;;;;;;0.50;0.20;;;;;;;22.51;87.86;99523.84;5007632;28;20445;-53
2023/09/18 09:17:44;;;;;;;0.40;0.20;;;;;;;22.57;88.44;99513.28;5005056;28;20515;-54
2023/09/18 09:20:12;;;;;;;0.40;0.20;;;;;;;22.66;87.75;99512.47;5000809;28;20453;-53
2023/09/18 09:22:40;;;;;;;0.50;0.20;;;;;;;22.62;88.06;99510.19;5003418;28;20455;-54
2023/09/18 09:25:34;;;;;;;0.50;0.30;;;;;;;22.90;87.34;99503.97;5000642;28;20457;-54
2023/09/18 09:28:04;;;;;;;0.50;0.20;;;;;;;22.57;88.41;99517.84;5000654;28;21076;-54
2023/09/18 09:30:32;;;;;;;0.50;0.30;;;;;;;22.61;88.02;99530.97;5004519;28;20478;-53
2023/09/18 09:33:02;;;;;;;0.47;0.20;;;;;;;22.73;87.89;99527.16;5007293;28;20456;-54
2023/09/18 09:35:33;;;;;;;0.40;0.30;;;;;;;22.80;87.75;99523.91;5003967;28;20454;-54
2023/09/18 09:38:06;;;;;;;0.50;0.20;;;;;;;22.74;87.64;99509.03;5000638;28;20419;-54
2023/09/18 09:40:37;;;;;;;0.40;0.20;;;;;;;22.73;87.86;99515.44;5001478;28;20441;-54
2023/09/18 09:43:08;;;;;;;0.40;0.20;;;;;;;22.81;87.11;99520.19;5007314;28;20549;-54
2023/09/18 09:45:38;;;;;;;0.40;0.20;;;;;;;22.73;87.13;99527.16;5007109;28;20443;-54
2023/09/18 09:48:06;;;;;;;0.40;0.20;;;;;;;23.03;87.31;99525.38;4993990;28;20489;-54
2023/09/18 09:50:46;;;;;;;0.50;0.20;;;;;;;22.90;87.06;99525.66;5007087;28;20452;-54
2023/09/18 09:53:13;;;;;;;0.40;0.20;;;;;;;23.03;86.07;99523.53;5002653;28;20961;-54
2023/09/18 09:55:40;;;;;;;0.50;0.20;;;;;;;23.21;86.46;99520.94;5023132;28;20504;-54
2023/09/18 09:58:10;;;;;;;0.50;0.20;;;;;;;23.25;86.25;99516.94;5012676;28;20441;-54
2023/09/18 10:00:49;;;;;;;0.50;0.23;;;;;;;23.28;86.03;99513.09;4995818;28;20462;-54
2023/09/18 10:03:18;;;;;;;0.50;0.30;;;;;;;23.52;85.42;99526.19;5000787;28;20427;-54
2023/09/18 10:05:47;;;;;;;0.50;0.20;;;;;;;23.40;85.04;99532.78;5006266;28;20473;-54
2023/09/18 10:08:21;;;;;;;0.40;0.20;;;;;;;23.12;85.66;99537.22;5006626;28;21062;-53
2023/09/18 10:10:51;;;;;;;0.50;0.30;;;;;;;23.24;85.92;99534.22;5005739;28;20423;-54
2023/09/18 10:13:24;;;;;;;0.40;0.20;;;;;;;23.15;85.60;99535.06;5007002;28;20453;-54
2023/09/18 10:15:51;;;;;;;0.47;0.20;;;;;;;23.12;85.59;99538.06;4984676;28;20447;-54
2023/09/18 10:18:26;;;;;;;0.40;0.20;;;;;;;23.32;85.63;99538.94;4999616;28;20537;-54
2023/09/18 10:21:07;;;;;;;0.47;0.20;;;;;;;23.33;84.72;99540.66;4985031;28;20804;-53
2023/09/18 10:23:58;;;;;;;0.50;0.20;;;;;;;23.48;84.97;99541.06;5006134;28;20454;-54
2023/09/18 10:26:30;;;;;;;0.50;0.20;;;;;;;23.32;85.45;99528.94;5006370;28;20467;-54
2023/09/18 10:28:59;;;;;;;0.50;0.20;;;;;;;23.32;85.07;99531.66;5003941;28;20471;-54
2023/09/18 10:31:28;;;;;;;0.50;0.20;;;;;;;23.64;84.44;99514.22;4999773;28;20522;-53
2023/09/18 10:33:59;;;;;;;0.50;0.20;;;;;;;23.62;84.37;99513.50;5002204;28;20958;-54
2023/09/18 10:36:26;;;;;;;0.40;0.20;;;;;;;23.77;83.95;99517.47;5006124;28;20507;-54
2023/09/18 10:38:54;;;;;;;0.50;0.30;;;;;;;23.84;83.39;99515.88;5004296;28;20460;-54
2023/09/18 10:41:22;;;;;;;0.50;0.20;;;;;;;23.73;83.89;99510.63;4999312;28;20535;-54
2023/09/18 10:43:53;;;;;;;0.50;0.20;;;;;;;23.78;82.78;99511.03;5000887;28;20566;-54
2023/09/18 10:46:20;;;;;;;0.50;0.20;;;;;;;23.70;82.62;99502.75;5005571;28;20504;-54
2023/09/18 10:48:48;;;;;;;0.40;0.20;;;;;;;23.89;82.50;99508.16;5005068;28;20488;-54
2023/09/18 10:51:23;;;;;;;0.50;0.20;;;;;;;23.88;82.51;99505.59;4999221;28;20539;-54
2023/09/18 10:53:49;;;;;;;0.50;0.23;;;;;;;23.72;83.64;99514.34;5009698;28;20502;-54
2023/09/18 10:56:16;;;;;;;0.47;0.20;;;;;;;23.92;82.73;99509.72;5019881;28;20443;-54
2023/09/18 10:58:43;;;;;;;0.50;0.20;;;;;;;23.88;83.24;99520.03;5012262;28;20423;-54
2023/09/18 11:01:13;;;;;;;0.50;0.20;;;;;;;24.00;82.82;99517.97;5006039;28;20993;-54
2023/09/18 11:03:40;;;;;;;0.50;0.30;;;;;;;23.69;83.33;99509.19;4999026;28;20516;-54
2023/09/18 11:06:14;;;;;;;0.50;0.30;;;;;;;23.80;83.48;99510.88;5003125;28;20473;-53
2023/09/18 11:08:45;;;;;;;0.50;0.20;;;;;;;23.59;83.44;99511.09;5006005;28;20600;-53
2023/09/18 11:11:16;;;;;;;0.50;0.30;;;;;;;23.88;83.28;99525.44;5003752;28;20453;-53
2023/09/18 11:13:45;;;;;;;0.50;0.27;;;;;;;24.06;82.77;99520.09;4999042;28;20461;-53
2023/09/18 11:16:33;;;;;;;0.43;0.20;;;;;;;24.06;82.99;99508.38;5012177;28;20472;-53
2023/09/18 11:19:00;;;;;;;0.50;0.30;;;;;;;23.83;83.13;99518.72;4992837;28;20446;-53
2023/09/18 11:21:29;;;;;;;0.50;0.20;;;;;;;23.87;82.86;99531.03;5005985;28;20419;-53
2023/09/18 11:24:00;;;;;;;0.50;0.30;;;;;;;23.75;83.11;99533.06;4994890;28;20457;-53
2023/09/18 11:26:31;;;;;;;0.50;0.30;;;;;;;23.65;83.48;99534.94;5005580;28;20564;-54
2023/09/18 11:29:06;;;;;;;0.50;0.20;;;;;;;23.82;83.33;99531.44;5002229;28;20484;-54
2023/09/18 11:31:50;;;;;;;0.47;0.23;;;;;;;23.72;83.38;99529.78;4998794;28;20876;-54
2023/09/18 11:34:22;;;;;;;0.60;0.60;;;;;;;23.71;83.57;99525.34;4999042;28;20491;-54
2023/09/18 11:36:49;;;;;;;0.50;0.30;;;;;;;23.76;82.83;99521.19;5003997;28;21061;-52